sensor_id;sensor_type;location;lat;lon;timestamp;P1;durP1;ratioP1;P2;durP2;ratioP2
64029;SDS011;50277;52.064;4.492;2023-03-20T00:00:43;13.30;;;7.15;;
64029;SDS011;50277;52.064;4.492;2023-03-20T00:03:11;15.75;;;7.25;;
64029;SDS011;50277;52.064;4.492;2023-03-20T00:05:37;17.05;;;7.00;;
64029;SDS011;50277;52.064;4.492;2023-03-20T00:08:02;15.38;;;7.45;;
64029;SDS011;50277;52.064;4.492;2023-03-20T00:10:30;20.13;;;7.72;;
64029;SDS011;50277;52.064;4.492;2023-03-20T00:12:58;14.02;;;6.82;;
64029;SDS011;50277;52.064;4.492;2023-03-20T00:15:29;12.57;;;7.28;;
64029;SDS011;50277;52.064;4.492;2023-03-20T00:17:56;14.20;;;6.82;;
64029;SDS011;50277;52.064;4.492;2023-03-20T00:20:22;16.40;;;6.68;;
64029;SDS011;50277;52.064;4.492;2023-03-20T00:22:48;15.02;;;7.70;;
64029;SDS011;50277;52.064;4.492;2023-03-20T00:25:14;14.43;;;7.80;;
64029;SDS011;50277;52.064;4.492;2023-03-20T00:27:42;23.52;;;7.97;;
64029;SDS011;50277;52.064;4.492;2023-03-20T00:30:29;15.15;;;7.47;;
64029;SDS011;50277;52.064;4.492;2023-03-20T00:32:54;18.00;;;7.55;;
64029;SDS011;50277;52.064;4.492;2023-03-20T00:35:28;16.23;;;8.00;;
64029;SDS011;50277;52.064;4.492;2023-03-20T00:37:55;18.02;;;7.82;;
64029;SDS011;50277;52.064;4.492;2023-03-20T00:40:21;12.07;;;7.22;;
64029;SDS011;50277;52.064;4.492;2023-03-20T00:42:50;11.52;;;7.22;;
64029;SDS011;50277;52.064;4.492;2023-03-20T00:45:21;16.02;;;7.47;;
64029;SDS011;50277;52.064;4.492;2023-03-20T00:47:48;12.07;;;6.88;;
64029;SDS011;50277;52.064;4.492;2023-03-20T00:50:16;13.25;;;7.15;;
64029;SDS011;50277;52.064;4.492;2023-03-20T00:52:42;18.90;;;7.32;;
64029;SDS011;50277;52.064;4.492;2023-03-20T00:55:08;20.02;;;7.82;;
64029;SDS011;50277;52.064;4.492;2023-03-20T00:57:51;14.85;;;7.43;;
64029;SDS011;50277;52.064;4.492;2023-03-20T01:00:24;13.15;;;6.38;;
64029;SDS011;50277;52.064;4.492;2023-03-20T01:03:01;13.23;;;6.43;;
64029;SDS011;50277;52.064;4.492;2023-03-20T01:05:47;16.48;;;6.63;;
64029;SDS011;50277;52.064;4.492;2023-03-20T01:08:21;12.98;;;5.90;;
64029;SDS011;50277;52.064;4.492;2023-03-20T01:10:49;18.90;;;6.38;;
64029;SDS011;50277;52.064;4.492;2023-03-20T01:13:18;15.48;;;6.32;;
64029;SDS011;50277;52.064;4.492;2023-03-20T01:15:54;16.33;;;6.63;;
64029;SDS011;50277;52.064;4.492;2023-03-20T01:18:25;14.43;;;5.95;;
64029;SDS011;50277;52.064;4.492;2023-03-20T01:20:51;14.48;;;6.35;;
64029;SDS011;50277;52.064;4.492;2023-03-20T01:23:17;11.13;;;5.95;;
64029;SDS011;50277;52.064;4.492;2023-03-20T01:25:42;12.02;;;5.78;;
64029;SDS011;50277;52.064;4.492;2023-03-20T01:28:15;13.68;;;7.15;;
64029;SDS011;50277;52.064;4.492;2023-03-20T01:30:43;14.52;;;6.35;;
64029;SDS011;50277;52.064;4.492;2023-03-20T01:33:19;18.77;;;6.85;;
64029;SDS011;50277;52.064;4.492;2023-03-20T01:35:46;20.40;;;6.95;;
64029;SDS011;50277;52.064;4.492;2023-03-20T01:38:14;9.80;;;6.53;;
64029;SDS011;50277;52.064;4.492;2023-03-20T01:40:54;11.52;;;6.90;;
64029;SDS011;50277;52.064;4.492;2023-03-20T01:43:22;13.95;;;7.97;;
64029;SDS011;50277;52.064;4.492;2023-03-20T01:46:03;13.93;;;6.80;;
64029;SDS011;50277;52.064;4.492;2023-03-20T01:51:15;15.25;;;7.15;;
64029;SDS011;50277;52.064;4.492;2023-03-20T01:53:41;19.20;;;7.80;;
64029;SDS011;50277;52.064;4.492;2023-03-20T01:56:07;16.70;;;7.55;;
64029;SDS011;50277;52.064;4.492;2023-03-20T01:58:34;13.48;;;7.63;;
64029;SDS011;50277;52.064;4.492;2023-03-20T02:01:01;17.15;;;7.55;;
64029;SDS011;50277;52.064;4.492;2023-03-20T02:03:28;21.40;;;8.35;;
64029;SDS011;50277;52.064;4.492;2023-03-20T02:05:54;17.20;;;6.80;;
64029;SDS011;50277;52.064;4.492;2023-03-20T02:08:22;19.50;;;7.10;;
64029;SDS011;50277;52.064;4.492;2023-03-20T02:10:50;18.10;;;7.72;;
64029;SDS011;50277;52.064;4.492;2023-03-20T02:13:15;13.70;;;6.57;;
64029;SDS011;50277;52.064;4.492;2023-03-20T02:26:57;11.20;;;6.65;;
64029;SDS011;50277;52.064;4.492;2023-03-20T02:29:37;16.75;;;7.93;;
64029;SDS011;50277;52.064;4.492;2023-03-20T02:35:04;15.27;;;7.65;;
64029;SDS011;50277;52.064;4.492;2023-03-20T02:40:45;15.80;;;8.40;;
64029;SDS011;50277;52.064;4.492;2023-03-20T02:48:45;13.55;;;7.90;;
64029;SDS011;50277;52.064;4.492;2023-03-20T02:51:23;15.50;;;8.18;;
64029;SDS011;50277;52.064;4.492;2023-03-20T02:53:58;15.07;;;7.95;;
64029;SDS011;50277;52.064;4.492;2023-03-20T02:59:21;14.77;;;7.75;;
64029;SDS011;50277;52.064;4.492;2023-03-20T03:01:58;18.05;;;8.20;;
64029;SDS011;50277;52.064;4.492;2023-03-20T03:04:31;13.05;;;7.93;;
64029;SDS011;50277;52.064;4.492;2023-03-20T03:07:00;17.92;;;8.90;;
64029;SDS011;50277;52.064;4.492;2023-03-20T03:09:28;19.15;;;8.18;;
64029;SDS011;50277;52.064;4.492;2023-03-20T03:12:04;16.98;;;8.00;;
64029;SDS011;50277;52.064;4.492;2023-03-20T03:14:39;11.93;;;7.70;;
64029;SDS011;50277;52.064;4.492;2023-03-20T03:17:07;16.20;;;8.48;;
64029;SDS011;50277;52.064;4.492;2023-03-20T03:19:35;20.55;;;8.10;;
64029;SDS011;50277;52.064;4.492;2023-03-20T03:22:02;19.88;;;8.05;;
64029;SDS011;50277;52.064;4.492;2023-03-20T03:24:38;14.13;;;8.02;;
64029;SDS011;50277;52.064;4.492;2023-03-20T03:27:14;10.50;;;7.82;;
64029;SDS011;50277;52.064;4.492;2023-03-20T03:29:43;14.88;;;7.88;;
64029;SDS011;50277;52.064;4.492;2023-03-20T03:34:59;12.93;;;8.20;;
64029;SDS011;50277;52.064;4.492;2023-03-20T03:37:32;17.45;;;8.50;;
64029;SDS011;50277;52.064;4.492;2023-03-20T03:45:23;14.18;;;9.43;;
64029;SDS011;50277;52.064;4.492;2023-03-20T03:47:55;15.38;;;7.90;;
64029;SDS011;50277;52.064;4.492;2023-03-20T03:50:36;20.40;;;8.73;;
64029;SDS011;50277;52.064;4.492;2023-03-20T03:53:05;14.05;;;8.25;;
64029;SDS011;50277;52.064;4.492;2023-03-20T03:55:36;16.80;;;7.88;;
64029;SDS011;50277;52.064;4.492;2023-03-20T03:58:06;15.77;;;8.23;;
64029;SDS011;50277;52.064;4.492;2023-03-20T04:00:39;11.68;;;8.25;;
64029;SDS011;50277;52.064;4.492;2023-03-20T04:03:06;13.52;;;8.40;;
64029;SDS011;50277;52.064;4.492;2023-03-20T04:05:31;12.98;;;8.43;;
64029;SDS011;50277;52.064;4.492;2023-03-20T04:08:02;18.08;;;8.60;;
64029;SDS011;50277;52.064;4.492;2023-03-20T04:10:28;13.60;;;8.23;;
64029;SDS011;50277;52.064;4.492;2023-03-20T04:12:53;15.15;;;8.40;;
64029;SDS011;50277;52.064;4.492;2023-03-20T04:15:18;14.60;;;7.30;;
64029;SDS011;50277;52.064;4.492;2023-03-20T04:17:45;17.05;;;8.35;;
64029;SDS011;50277;52.064;4.492;2023-03-20T04:20:11;10.40;;;7.93;;
64029;SDS011;50277;52.064;4.492;2023-03-20T04:22:37;16.95;;;8.07;;
64029;SDS011;50277;52.064;4.492;2023-03-20T04:25:03;15.57;;;8.15;;
64029;SDS011;50277;52.064;4.492;2023-03-20T04:27:29;14.25;;;8.27;;
64029;SDS011;50277;52.064;4.492;2023-03-20T04:29:55;14.18;;;7.93;;
64029;SDS011;50277;52.064;4.492;2023-03-20T04:32:21;17.33;;;8.35;;
64029;SDS011;50277;52.064;4.492;2023-03-20T04:34:46;10.40;;;7.75;;
64029;SDS011;50277;52.064;4.492;2023-03-20T04:37:12;15.60;;;8.43;;
64029;SDS011;50277;52.064;4.492;2023-03-20T04:39:37;15.32;;;8.15;;
64029;SDS011;50277;52.064;4.492;2023-03-20T04:42:03;12.40;;;7.93;;
64029;SDS011;50277;52.064;4.492;2023-03-20T04:44:29;15.38;;;8.20;;
64029;SDS011;50277;52.064;4.492;2023-03-20T04:46:55;18.35;;;7.72;;
64029;SDS011;50277;52.064;4.492;2023-03-20T04:49:20;14.70;;;7.68;;
64029;SDS011;50277;52.064;4.492;2023-03-20T04:51:46;17.42;;;8.20;;
64029;SDS011;50277;52.064;4.492;2023-03-20T04:54:11;14.82;;;8.40;;
64029;SDS011;50277;52.064;4.492;2023-03-20T04:56:36;13.75;;;7.55;;
64029;SDS011;50277;52.064;4.492;2023-03-20T04:59:02;20.52;;;9.05;;
64029;SDS011;50277;52.064;4.492;2023-03-20T05:01:27;15.38;;;7.47;;
64029;SDS011;50277;52.064;4.492;2023-03-20T05:03:52;15.43;;;8.35;;
64029;SDS011;50277;52.064;4.492;2023-03-20T05:06:24;14.43;;;7.88;;
64029;SDS011;50277;52.064;4.492;2023-03-20T05:08:50;15.43;;;8.15;;
64029;SDS011;50277;52.064;4.492;2023-03-20T05:11:15;22.88;;;8.57;;
64029;SDS011;50277;52.064;4.492;2023-03-20T05:13:41;15.02;;;8.18;;
64029;SDS011;50277;52.064;4.492;2023-03-20T05:16:07;14.13;;;7.72;;
64029;SDS011;50277;52.064;4.492;2023-03-20T05:18:33;17.83;;;8.23;;
64029;SDS011;50277;52.064;4.492;2023-03-20T05:20:58;22.20;;;8.93;;
64029;SDS011;50277;52.064;4.492;2023-03-20T05:23:25;19.88;;;8.10;;
64029;SDS011;50277;52.064;4.492;2023-03-20T05:25:50;21.52;;;8.18;;
64029;SDS011;50277;52.064;4.492;2023-03-20T05:28:15;16.83;;;8.05;;
64029;SDS011;50277;52.064;4.492;2023-03-20T05:30:41;23.20;;;8.50;;
64029;SDS011;50277;52.064;4.492;2023-03-20T05:33:06;16.83;;;7.80;;
64029;SDS011;50277;52.064;4.492;2023-03-20T05:35:32;18.88;;;9.70;;
64029;SDS011;50277;52.064;4.492;2023-03-20T05:37:57;17.70;;;9.00;;
64029;SDS011;50277;52.064;4.492;2023-03-20T05:40:22;20.85;;;9.00;;
64029;SDS011;50277;52.064;4.492;2023-03-20T05:42:49;15.25;;;8.68;;
64029;SDS011;50277;52.064;4.492;2023-03-20T05:45:15;12.90;;;7.78;;
64029;SDS011;50277;52.064;4.492;2023-03-20T05:47:40;17.13;;;8.77;;
64029;SDS011;50277;52.064;4.492;2023-03-20T05:50:06;24.70;;;8.85;;
64029;SDS011;50277;52.064;4.492;2023-03-20T05:52:31;21.38;;;9.23;;
64029;SDS011;50277;52.064;4.492;2023-03-20T05:54:57;15.23;;;7.43;;
64029;SDS011;50277;52.064;4.492;2023-03-20T05:57:22;21.42;;;8.80;;
64029;SDS011;50277;52.064;4.492;2023-03-20T05:59:48;14.45;;;7.90;;
64029;SDS011;50277;52.064;4.492;2023-03-20T06:02:13;18.63;;;8.88;;
64029;SDS011;50277;52.064;4.492;2023-03-20T06:04:39;16.10;;;8.10;;
64029;SDS011;50277;52.064;4.492;2023-03-20T06:07:05;19.58;;;8.43;;
64029;SDS011;50277;52.064;4.492;2023-03-20T06:09:30;19.88;;;8.30;;
64029;SDS011;50277;52.064;4.492;2023-03-20T06:11:56;19.10;;;7.93;;
64029;SDS011;50277;52.064;4.492;2023-03-20T06:14:22;19.65;;;7.60;;
64029;SDS011;50277;52.064;4.492;2023-03-20T06:16:47;21.80;;;7.90;;
64029;SDS011;50277;52.064;4.492;2023-03-20T06:19:12;22.38;;;9.75;;
64029;SDS011;50277;52.064;4.492;2023-03-20T06:21:38;20.75;;;7.82;;
64029;SDS011;50277;52.064;4.492;2023-03-20T06:24:03;15.10;;;8.32;;
64029;SDS011;50277;52.064;4.492;2023-03-20T06:26:29;23.00;;;9.02;;
64029;SDS011;50277;52.064;4.492;2023-03-20T06:28:54;24.98;;;10.63;;
64029;SDS011;50277;52.064;4.492;2023-03-20T06:31:20;20.27;;;8.90;;
64029;SDS011;50277;52.064;4.492;2023-03-20T06:33:45;13.55;;;7.35;;
64029;SDS011;50277;52.064;4.492;2023-03-20T06:36:10;17.73;;;6.90;;
64029;SDS011;50277;52.064;4.492;2023-03-20T06:38:36;22.73;;;6.95;;
64029;SDS011;50277;52.064;4.492;2023-03-20T06:41:01;19.60;;;6.55;;
64029;SDS011;50277;52.064;4.492;2023-03-20T06:43:27;13.43;;;7.38;;
64029;SDS011;50277;52.064;4.492;2023-03-20T06:45:52;18.45;;;7.35;;
64029;SDS011;50277;52.064;4.492;2023-03-20T06:48:17;17.63;;;6.28;;
64029;SDS011;50277;52.064;4.492;2023-03-20T06:50:46;21.30;;;6.82;;
64029;SDS011;50277;52.064;4.492;2023-03-20T06:53:12;15.73;;;6.32;;
64029;SDS011;50277;52.064;4.492;2023-03-20T06:55:38;16.88;;;6.03;;
64029;SDS011;50277;52.064;4.492;2023-03-20T06:58:03;19.35;;;5.95;;
64029;SDS011;50277;52.064;4.492;2023-03-20T07:00:28;17.48;;;6.32;;
64029;SDS011;50277;52.064;4.492;2023-03-20T07:02:54;17.08;;;5.95;;
64029;SDS011;50277;52.064;4.492;2023-03-20T07:05:19;16.67;;;6.95;;
64029;SDS011;50277;52.064;4.492;2023-03-20T07:07:44;13.88;;;5.43;;
64029;SDS011;50277;52.064;4.492;2023-03-20T07:10:10;15.10;;;6.07;;
64029;SDS011;50277;52.064;4.492;2023-03-20T07:12:36;12.95;;;5.07;;
64029;SDS011;50277;52.064;4.492;2023-03-20T07:15:02;12.73;;;5.18;;
64029;SDS011;50277;52.064;4.492;2023-03-20T07:17:28;14.82;;;5.40;;
64029;SDS011;50277;52.064;4.492;2023-03-20T07:19:53;15.52;;;5.07;;
64029;SDS011;50277;52.064;4.492;2023-03-20T07:22:27;12.57;;;5.25;;
64029;SDS011;50277;52.064;4.492;2023-03-20T07:24:53;19.35;;;5.70;;
64029;SDS011;50277;52.064;4.492;2023-03-20T07:27:19;21.77;;;4.97;;
64029;SDS011;50277;52.064;4.492;2023-03-20T07:29:45;14.85;;;5.00;;
64029;SDS011;50277;52.064;4.492;2023-03-20T07:32:10;16.27;;;4.95;;
64029;SDS011;50277;52.064;4.492;2023-03-20T07:34:36;11.57;;;4.90;;
64029;SDS011;50277;52.064;4.492;2023-03-20T07:37:02;13.60;;;4.60;;
64029;SDS011;50277;52.064;4.492;2023-03-20T07:39:27;17.90;;;5.05;;
64029;SDS011;50277;52.064;4.492;2023-03-20T07:41:53;15.02;;;4.95;;
64029;SDS011;50277;52.064;4.492;2023-03-20T07:44:18;16.35;;;5.68;;
64029;SDS011;50277;52.064;4.492;2023-03-20T07:46:44;17.60;;;5.43;;
64029;SDS011;50277;52.064;4.492;2023-03-20T07:51:38;13.85;;;4.53;;
64029;SDS011;50277;52.064;4.492;2023-03-20T07:54:04;11.88;;;5.68;;
64029;SDS011;50277;52.064;4.492;2023-03-20T07:56:29;13.57;;;4.50;;
64029;SDS011;50277;52.064;4.492;2023-03-20T07:58:55;13.48;;;5.45;;
64029;SDS011;50277;52.064;4.492;2023-03-20T08:01:20;14.90;;;4.68;;
64029;SDS011;50277;52.064;4.492;2023-03-20T08:03:45;13.93;;;5.07;;
64029;SDS011;50277;52.064;4.492;2023-03-20T08:06:11;12.57;;;5.00;;
64029;SDS011;50277;52.064;4.492;2023-03-20T08:08:37;19.52;;;4.95;;
64029;SDS011;50277;52.064;4.492;2023-03-20T08:11:02;15.30;;;4.80;;
64029;SDS011;50277;52.064;4.492;2023-03-20T08:13:27;12.40;;;4.25;;
64029;SDS011;50277;52.064;4.492;2023-03-20T08:15:53;16.67;;;5.03;;
64029;SDS011;50277;52.064;4.492;2023-03-20T08:18:18;17.90;;;5.00;;
64029;SDS011;50277;52.064;4.492;2023-03-20T08:20:46;18.23;;;4.97;;
64029;SDS011;50277;52.064;4.492;2023-03-20T08:23:14;12.80;;;4.80;;
64029;SDS011;50277;52.064;4.492;2023-03-20T08:25:40;16.55;;;5.47;;
64029;SDS011;50277;52.064;4.492;2023-03-20T08:28:05;15.80;;;4.97;;
64029;SDS011;50277;52.064;4.492;2023-03-20T08:30:31;15.38;;;5.40;;
64029;SDS011;50277;52.064;4.492;2023-03-20T08:32:56;13.27;;;4.50;;
64029;SDS011;50277;52.064;4.492;2023-03-20T08:35:22;14.40;;;5.18;;
64029;SDS011;50277;52.064;4.492;2023-03-20T08:37:48;13.25;;;5.10;;
64029;SDS011;50277;52.064;4.492;2023-03-20T08:40:13;13.60;;;4.78;;
64029;SDS011;50277;52.064;4.492;2023-03-20T08:42:39;15.05;;;4.78;;
64029;SDS011;50277;52.064;4.492;2023-03-20T08:45:04;18.67;;;5.13;;
64029;SDS011;50277;52.064;4.492;2023-03-20T08:47:31;12.55;;;5.55;;
64029;SDS011;50277;52.064;4.492;2023-03-20T08:49:56;11.30;;;4.75;;
64029;SDS011;50277;52.064;4.492;2023-03-20T08:52:21;13.30;;;4.40;;
64029;SDS011;50277;52.064;4.492;2023-03-20T08:54:47;17.67;;;4.32;;
64029;SDS011;50277;52.064;4.492;2023-03-20T08:57:12;11.98;;;3.78;;
64029;SDS011;50277;52.064;4.492;2023-03-20T08:59:37;10.80;;;4.13;;
64029;SDS011;50277;52.064;4.492;2023-03-20T09:02:03;12.77;;;4.57;;
64029;SDS011;50277;52.064;4.492;2023-03-20T09:04:28;11.13;;;4.45;;
64029;SDS011;50277;52.064;4.492;2023-03-20T09:06:54;16.35;;;5.00;;
64029;SDS011;50277;52.064;4.492;2023-03-20T09:09:20;16.88;;;5.55;;
64029;SDS011;50277;52.064;4.492;2023-03-20T09:11:50;15.35;;;4.90;;
64029;SDS011;50277;52.064;4.492;2023-03-20T09:14:16;8.20;;;4.65;;
64029;SDS011;50277;52.064;4.492;2023-03-20T09:16:41;19.45;;;5.13;;
64029;SDS011;50277;52.064;4.492;2023-03-20T09:19:07;14.63;;;5.10;;
64029;SDS011;50277;52.064;4.492;2023-03-20T09:21:32;13.55;;;5.47;;
64029;SDS011;50277;52.064;4.492;2023-03-20T09:23:58;11.07;;;5.43;;
64029;SDS011;50277;52.064;4.492;2023-03-20T09:26:23;15.80;;;6.38;;
64029;SDS011;50277;52.064;4.492;2023-03-20T09:28:48;13.27;;;6.35;;
64029;SDS011;50277;52.064;4.492;2023-03-20T09:31:14;16.02;;;6.50;;
64029;SDS011;50277;52.064;4.492;2023-03-20T09:33:39;14.02;;;7.32;;
64029;SDS011;50277;52.064;4.492;2023-03-20T09:36:04;19.42;;;7.13;;
64029;SDS011;50277;52.064;4.492;2023-03-20T09:38:31;23.92;;;7.07;;
64029;SDS011;50277;52.064;4.492;2023-03-20T09:41:00;15.35;;;6.68;;
64029;SDS011;50277;52.064;4.492;2023-03-20T11:31:39;24.63;;;10.30;;
64029;SDS011;50277;52.064;4.492;2023-03-20T11:34:09;21.83;;;9.50;;
64029;SDS011;50277;52.064;4.492;2023-03-20T11:36:56;17.58;;;9.48;;
64029;SDS011;50277;52.064;4.492;2023-03-20T11:39:23;17.15;;;9.98;;
64029;SDS011;50277;52.064;4.492;2023-03-20T11:41:53;20.05;;;8.90;;
64029;SDS011;50277;52.064;4.492;2023-03-20T11:47:21;22.98;;;10.27;;
64029;SDS011;50277;52.064;4.492;2023-03-20T11:49:46;17.50;;;10.85;;
64029;SDS011;50277;52.064;4.492;2023-03-20T11:52:15;22.02;;;9.85;;
64029;SDS011;50277;52.064;4.492;2023-03-20T11:54:45;14.95;;;9.15;;
64029;SDS011;50277;52.064;4.492;2023-03-20T11:57:33;19.75;;;10.30;;
64029;SDS011;50277;52.064;4.492;2023-03-20T12:03:02;20.67;;;10.88;;
64029;SDS011;50277;52.064;4.492;2023-03-20T12:08:11;21.23;;;10.50;;
64029;SDS011;50277;52.064;4.492;2023-03-20T12:10:40;19.30;;;10.85;;
64029;SDS011;50277;52.064;4.492;2023-03-20T12:13:17;14.05;;;9.40;;
64029;SDS011;50277;52.064;4.492;2023-03-20T12:15:46;17.10;;;10.60;;
64029;SDS011;50277;52.064;4.492;2023-03-20T12:23:44;20.38;;;11.00;;
64029;SDS011;50277;52.064;4.492;2023-03-20T12:26:33;21.45;;;10.32;;
64029;SDS011;50277;52.064;4.492;2023-03-20T12:29:12;14.88;;;9.30;;
64029;SDS011;50277;52.064;4.492;2023-03-20T12:31:43;16.90;;;9.82;;
64029;SDS011;50277;52.064;4.492;2023-03-20T12:34:23;24.30;;;9.68;;
64029;SDS011;50277;52.064;4.492;2023-03-20T12:36:52;14.65;;;9.25;;
64029;SDS011;50277;52.064;4.492;2023-03-20T12:39:21;17.35;;;8.68;;
64029;SDS011;50277;52.064;4.492;2023-03-20T12:41:52;15.65;;;8.73;;
64029;SDS011;50277;52.064;4.492;2023-03-20T12:50:30;17.60;;;9.20;;
64029;SDS011;50277;52.064;4.492;2023-03-20T13:01:05;13.25;;;7.75;;
64029;SDS011;50277;52.064;4.492;2023-03-20T13:17:36;11.52;;;6.85;;
64029;SDS011;50277;52.064;4.492;2023-03-20T13:20:13;12.82;;;7.78;;
64029;SDS011;50277;52.064;4.492;2023-03-20T13:31:17;9.50;;;6.47;;
64029;SDS011;50277;52.064;4.492;2023-03-20T13:33:49;8.73;;;5.82;;
64029;SDS011;50277;52.064;4.492;2023-03-20T13:36:29;12.25;;;6.70;;
64029;SDS011;50277;52.064;4.492;2023-03-20T13:39:11;7.75;;;6.20;;
64029;SDS011;50277;52.064;4.492;2023-03-20T13:41:40;6.72;;;6.10;;
64029;SDS011;50277;52.064;4.492;2023-03-20T13:44:05;10.02;;;6.78;;
64029;SDS011;50277;52.064;4.492;2023-03-20T13:46:43;7.77;;;6.73;;
64029;SDS011;50277;52.064;4.492;2023-03-20T13:54:56;9.82;;;6.82;;
64029;SDS011;50277;52.064;4.492;2023-03-20T14:05:46;10.05;;;6.78;;
64029;SDS011;50277;52.064;4.492;2023-03-20T14:08:19;10.15;;;7.55;;
64029;SDS011;50277;52.064;4.492;2023-03-20T14:10:45;9.98;;;7.00;;
64029;SDS011;50277;52.064;4.492;2023-03-20T14:13:12;9.07;;;7.68;;
64029;SDS011;50277;52.064;4.492;2023-03-20T14:18:06;11.32;;;8.43;;
64029;SDS011;50277;52.064;4.492;2023-03-20T14:20:37;9.82;;;8.82;;
64029;SDS011;50277;52.064;4.492;2023-03-20T14:23:04;13.98;;;9.05;;
64029;SDS011;50277;52.064;4.492;2023-03-20T14:25:34;13.98;;;9.45;;
64029;SDS011;50277;52.064;4.492;2023-03-20T14:28:26;12.45;;;9.95;;
64029;SDS011;50277;52.064;4.492;2023-03-20T14:31:10;14.75;;;10.90;;
64029;SDS011;50277;52.064;4.492;2023-03-20T14:33:59;11.52;;;10.02;;
64029;SDS011;50277;52.064;4.492;2023-03-20T14:50:12;14.17;;;10.53;;
64029;SDS011;50277;52.064;4.492;2023-03-20T14:57:43;13.47;;;11.10;;
64029;SDS011;50277;52.064;4.492;2023-03-20T15:00:17;14.13;;;11.93;;
64029;SDS011;50277;52.064;4.492;2023-03-20T15:02:57;14.85;;;11.38;;
64029;SDS011;50277;52.064;4.492;2023-03-20T15:05:36;14.95;;;10.50;;
64029;SDS011;50277;52.064;4.492;2023-03-20T15:08:04;13.07;;;9.75;;
64029;SDS011;50277;52.064;4.492;2023-03-20T15:10:35;13.93;;;9.38;;
64029;SDS011;50277;52.064;4.492;2023-03-20T15:13:06;12.73;;;8.48;;
64029;SDS011;50277;52.064;4.492;2023-03-20T15:15:32;13.73;;;8.77;;
64029;SDS011;50277;52.064;4.492;2023-03-20T15:18:09;11.70;;;7.78;;
64029;SDS011;50277;52.064;4.492;2023-03-20T15:20:37;9.35;;;6.30;;
64029;SDS011;50277;52.064;4.492;2023-03-20T15:23:02;9.82;;;6.32;;
64029;SDS011;50277;52.064;4.492;2023-03-20T15:25:31;11.15;;;5.90;;
64029;SDS011;50277;52.064;4.492;2023-03-20T15:28:05;9.93;;;5.53;;
64029;SDS011;50277;52.064;4.492;2023-03-20T15:30:31;8.60;;;5.25;;
64029;SDS011;50277;52.064;4.492;2023-03-20T15:32:58;11.88;;;5.68;;
64029;SDS011;50277;52.064;4.492;2023-03-20T15:35:25;13.68;;;5.88;;
64029;SDS011;50277;52.064;4.492;2023-03-20T15:37:50;8.02;;;4.75;;
64029;SDS011;50277;52.064;4.492;2023-03-20T15:40:30;12.68;;;5.35;;
64029;SDS011;50277;52.064;4.492;2023-03-20T15:43:29;8.80;;;4.90;;
64029;SDS011;50277;52.064;4.492;2023-03-20T15:45:52;12.90;;;5.00;;
64029;SDS011;50277;52.064;4.492;2023-03-20T15:48:20;9.75;;;4.75;;
64029;SDS011;50277;52.064;4.492;2023-03-20T15:50:50;9.43;;;4.78;;
64029;SDS011;50277;52.064;4.492;2023-03-20T15:53:19;16.23;;;5.03;;
64029;SDS011;50277;52.064;4.492;2023-03-20T15:55:52;8.32;;;4.68;;
64029;SDS011;50277;52.064;4.492;2023-03-20T15:58:30;7.32;;;4.03;;
64029;SDS011;50277;52.064;4.492;2023-03-20T16:00:56;10.32;;;4.30;;
64029;SDS011;50277;52.064;4.492;2023-03-20T16:03:22;9.35;;;4.80;;
64029;SDS011;50277;52.064;4.492;2023-03-20T16:05:48;12.13;;;4.25;;
64029;SDS011;50277;52.064;4.492;2023-03-20T16:08:27;8.15;;;3.85;;
64029;SDS011;50277;52.064;4.492;2023-03-20T16:11:02;13.05;;;4.72;;
64029;SDS011;50277;52.064;4.492;2023-03-20T16:13:36;11.25;;;5.25;;
64029;SDS011;50277;52.064;4.492;2023-03-20T16:16:05;14.68;;;4.28;;
64029;SDS011;50277;52.064;4.492;2023-03-20T16:18:35;11.82;;;4.10;;
64029;SDS011;50277;52.064;4.492;2023-03-20T16:21:03;14.68;;;4.75;;
64029;SDS011;50277;52.064;4.492;2023-03-20T16:23:41;16.77;;;4.25;;
64029;SDS011;50277;52.064;4.492;2023-03-20T16:26:12;16.85;;;4.55;;
64029;SDS011;50277;52.064;4.492;2023-03-20T16:28:40;15.57;;;4.72;;
64029;SDS011;50277;52.064;4.492;2023-03-20T16:31:24;12.55;;;3.95;;
64029;SDS011;50277;52.064;4.492;2023-03-20T16:33:51;8.88;;;3.20;;
64029;SDS011;50277;52.064;4.492;2023-03-20T16:36:19;10.13;;;3.72;;
64029;SDS011;50277;52.064;4.492;2023-03-20T16:38:57;9.73;;;2.97;;
64029;SDS011;50277;52.064;4.492;2023-03-20T16:41:31;14.98;;;3.40;;
64029;SDS011;50277;52.064;4.492;2023-03-20T16:43:58;14.98;;;3.22;;
64029;SDS011;50277;52.064;4.492;2023-03-20T16:46:25;9.20;;;3.40;;
64029;SDS011;50277;52.064;4.492;2023-03-20T16:48:51;11.60;;;3.70;;
64029;SDS011;50277;52.064;4.492;2023-03-20T16:53:56;13.40;;;3.70;;
64029;SDS011;50277;52.064;4.492;2023-03-20T16:59:06;10.20;;;3.15;;
64029;SDS011;50277;52.064;4.492;2023-03-20T17:01:32;15.15;;;3.70;;
64029;SDS011;50277;52.064;4.492;2023-03-20T17:04:11;11.70;;;3.58;;
64029;SDS011;50277;52.064;4.492;2023-03-20T17:06:48;10.23;;;3.17;;
64029;SDS011;50277;52.064;4.492;2023-03-20T17:09:18;13.35;;;3.00;;
64029;SDS011;50277;52.064;4.492;2023-03-20T17:11:50;14.05;;;2.85;;
64029;SDS011;50277;52.064;4.492;2023-03-20T17:14:27;16.67;;;3.33;;
64029;SDS011;50277;52.064;4.492;2023-03-20T17:16:53;11.15;;;2.55;;
64029;SDS011;50277;52.064;4.492;2023-03-20T17:19:20;8.73;;;2.83;;
64029;SDS011;50277;52.064;4.492;2023-03-20T17:21:46;8.98;;;2.47;;
64029;SDS011;50277;52.064;4.492;2023-03-20T17:24:12;8.68;;;2.60;;
64029;SDS011;50277;52.064;4.492;2023-03-20T17:26:38;12.68;;;3.13;;
64029;SDS011;50277;52.064;4.492;2023-03-20T17:29:05;10.85;;;3.58;;
64029;SDS011;50277;52.064;4.492;2023-03-20T17:31:30;13.27;;;2.88;;
64029;SDS011;50277;52.064;4.492;2023-03-20T17:33:55;4.15;;;2.38;;
64029;SDS011;50277;52.064;4.492;2023-03-20T17:36:29;10.73;;;2.75;;
64029;SDS011;50277;52.064;4.492;2023-03-20T17:38:56;7.00;;;3.10;;
64029;SDS011;50277;52.064;4.492;2023-03-20T17:41:22;7.43;;;2.40;;
64029;SDS011;50277;52.064;4.492;2023-03-20T17:43:48;9.80;;;2.63;;
64029;SDS011;50277;52.064;4.492;2023-03-20T17:48:53;8.23;;;2.78;;
64029;SDS011;50277;52.064;4.492;2023-03-20T17:51:23;9.10;;;2.60;;
64029;SDS011;50277;52.064;4.492;2023-03-20T17:53:48;7.25;;;2.67;;
64029;SDS011;50277;52.064;4.492;2023-03-20T17:56:19;8.60;;;2.70;;
64029;SDS011;50277;52.064;4.492;2023-03-20T17:58:45;6.72;;;2.25;;
64029;SDS011;50277;52.064;4.492;2023-03-20T18:01:11;3.25;;;1.90;;
64029;SDS011;50277;52.064;4.492;2023-03-20T18:03:37;6.10;;;2.00;;
64029;SDS011;50277;52.064;4.492;2023-03-20T18:06:02;3.67;;;2.33;;
64029;SDS011;50277;52.064;4.492;2023-03-20T18:08:29;5.63;;;2.28;;
64029;SDS011;50277;52.064;4.492;2023-03-20T18:10:54;2.67;;;1.92;;
64029;SDS011;50277;52.064;4.492;2023-03-20T18:13:21;3.90;;;2.00;;
64029;SDS011;50277;52.064;4.492;2023-03-20T18:15:47;2.85;;;2.15;;
64029;SDS011;50277;52.064;4.492;2023-03-20T18:18:17;3.67;;;2.20;;
64029;SDS011;50277;52.064;4.492;2023-03-20T18:20:43;3.60;;;2.05;;
64029;SDS011;50277;52.064;4.492;2023-03-20T18:23:09;3.58;;;2.67;;
64029;SDS011;50277;52.064;4.492;2023-03-20T18:25:35;2.33;;;2.13;;
64029;SDS011;50277;52.064;4.492;2023-03-20T18:28:01;3.05;;;2.17;;
64029;SDS011;50277;52.064;4.492;2023-03-20T18:30:35;3.65;;;2.50;;
64029;SDS011;50277;52.064;4.492;2023-03-20T18:33:02;3.67;;;2.30;;
64029;SDS011;50277;52.064;4.492;2023-03-20T18:35:28;3.83;;;2.25;;
64029;SDS011;50277;52.064;4.492;2023-03-20T18:37:54;2.95;;;2.08;;
64029;SDS011;50277;52.064;4.492;2023-03-20T18:40:21;5.15;;;2.20;;
64029;SDS011;50277;52.064;4.492;2023-03-20T18:42:50;3.20;;;2.33;;
64029;SDS011;50277;52.064;4.492;2023-03-20T18:45:15;3.25;;;2.30;;